sensor_id;sensor_type;location;lat;lon;timestamp;P1;durP1;ratioP1;P2;durP2;ratioP2
80868;SDS011;70295;40.182;44.498;2024-01-06T00:00:17;10.3;;;5.1;;
80868;SDS011;70295;40.182;44.498;2024-01-06T00:02:17;9.9;;;5.2;;
80868;SDS011;70295;40.182;44.498;2024-01-06T00:04:17;10.2;;;5.2;;
80868;SDS011;70295;40.182;44.498;2024-01-06T00:06:17;8.4;;;5.2;;
80868;SDS011;70295;40.182;44.498;2024-01-06T00:08:17;9.6;;;5.3;;
80868;SDS011;70295;40.182;44.498;2024-01-06T00:10:17;10;;;5.6;;
80868;SDS011;70295;40.182;44.498;2024-01-06T00:12:17;10.7;;;5.8;;
80868;SDS011;70295;40.182;44.498;2024-01-06T00:14:17;10.2;;;5.7;;
80868;SDS011;70295;40.182;44.498;2024-01-06T00:16:17;10.7;;;5.7;;
80868;SDS011;70295;40.182;44.498;2024-01-06T00:18:17;10.9;;;5.9;;
80868;SDS011;70295;40.182;44.498;2024-01-06T00:20:17;9.7;;;6.2;;
80868;SDS011;70295;40.182;44.498;2024-01-06T00:22:18;10.9;;;6.4;;
80868;SDS011;70295;40.182;44.498;2024-01-06T00:24:17;10.3;;;6.3;;
80868;SDS011;70295;40.182;44.498;2024-01-06T00:26:17;12.9;;;7.4;;
80868;SDS011;70295;40.182;44.498;2024-01-06T00:28:17;13.3;;;7.5;;
80868;SDS011;70295;40.182;44.498;2024-01-06T00:30:17;12.6;;;7.2;;
80868;SDS011;70295;40.182;44.498;2024-01-06T00:32:17;14.4;;;8;;
80868;SDS011;70295;40.182;44.498;2024-01-06T00:34:17;13.5;;;7.6;;
80868;SDS011;70295;40.182;44.498;2024-01-06T00:36:17;13.2;;;8;;
80868;SDS011;70295;40.182;44.498;2024-01-06T00:38:17;13.1;;;7.7;;
80868;SDS011;70295;40.182;44.498;2024-01-06T00:40:17;13.4;;;7.9;;
80868;SDS011;70295;40.182;44.498;2024-01-06T00:42:17;14.1;;;8.1;;
80868;SDS011;70295;40.182;44.498;2024-01-06T00:44:17;15;;;8.8;;
80868;SDS011;70295;40.182;44.498;2024-01-06T00:46:17;14;;;7.7;;
80868;SDS011;70295;40.182;44.498;2024-01-06T00:48:17;15.2;;;8.5;;
80868;SDS011;70295;40.182;44.498;2024-01-06T00:50:17;13.3;;;8.8;;
80868;SDS011;70295;40.182;44.498;2024-01-06T00:52:17;15.9;;;8.6;;
80868;SDS011;70295;40.182;44.498;2024-01-06T00:54:17;15.2;;;9;;
80868;SDS011;70295;40.182;44.498;2024-01-06T00:56:17;18.5;;;9.3;;
80868;SDS011;70295;40.182;44.498;2024-01-06T00:58:17;17.8;;;9.5;;
80868;SDS011;70295;40.182;44.498;2024-01-06T01:00:17;16.9;;;9.7;;
80868;SDS011;70295;40.182;44.498;2024-01-06T01:02:17;17.3;;;10.1;;
80868;SDS011;70295;40.182;44.498;2024-01-06T01:04:17;15.3;;;9;;
80868;SDS011;70295;40.182;44.498;2024-01-06T01:06:17;19.5;;;10.5;;
80868;SDS011;70295;40.182;44.498;2024-01-06T01:08:17;21.4;;;11.4;;
80868;SDS011;70295;40.182;44.498;2024-01-06T01:10:17;19.5;;;10.2;;
80868;SDS011;70295;40.182;44.498;2024-01-06T01:12:17;16.5;;;9.8;;
80868;SDS011;70295;40.182;44.498;2024-01-06T01:14:17;18.5;;;10.7;;
80868;SDS011;70295;40.182;44.498;2024-01-06T01:16:17;20.7;;;11.6;;
80868;SDS011;70295;40.182;44.498;2024-01-06T01:18:17;21;;;12.8;;
80868;SDS011;70295;40.182;44.498;2024-01-06T01:20:17;20.4;;;12.2;;
80868;SDS011;70295;40.182;44.498;2024-01-06T01:22:17;21.6;;;12.2;;
80868;SDS011;70295;40.182;44.498;2024-01-06T01:24:17;21.9;;;12.5;;
80868;SDS011;70295;40.182;44.498;2024-01-06T01:26:17;20.4;;;12.5;;
80868;SDS011;70295;40.182;44.498;2024-01-06T01:28:17;21.7;;;12.4;;
80868;SDS011;70295;40.182;44.498;2024-01-06T01:30:16;23.2;;;12.2;;
80868;SDS011;70295;40.182;44.498;2024-01-06T01:32:17;23.1;;;12.8;;
80868;SDS011;70295;40.182;44.498;2024-01-06T01:34:17;23;;;12.7;;
80868;SDS011;70295;40.182;44.498;2024-01-06T01:36:16;22.4;;;12.9;;
80868;SDS011;70295;40.182;44.498;2024-01-06T01:38:17;21.8;;;12.9;;
80868;SDS011;70295;40.182;44.498;2024-01-06T01:40:17;21.6;;;12.7;;
80868;SDS011;70295;40.182;44.498;2024-01-06T01:42:17;21.2;;;12.6;;
80868;SDS011;70295;40.182;44.498;2024-01-06T01:44:16;17.9;;;10.6;;
80868;SDS011;70295;40.182;44.498;2024-01-06T01:46:17;20.7;;;11.9;;
80868;SDS011;70295;40.182;44.498;2024-01-06T01:48:17;22.4;;;13;;
80868;SDS011;70295;40.182;44.498;2024-01-06T01:50:17;23.6;;;12.4;;
80868;SDS011;70295;40.182;44.498;2024-01-06T01:52:17;19.8;;;10.9;;
80868;SDS011;70295;40.182;44.498;2024-01-06T01:54:17;21.5;;;11.7;;
80868;SDS011;70295;40.182;44.498;2024-01-06T01:56:17;23.5;;;13.1;;
80868;SDS011;70295;40.182;44.498;2024-01-06T01:58:17;21.8;;;12.5;;
80868;SDS011;70295;40.182;44.498;2024-01-06T02:00:17;20.3;;;11;;
80868;SDS011;70295;40.182;44.498;2024-01-06T02:02:17;20.3;;;11.7;;
80868;SDS011;70295;40.182;44.498;2024-01-06T02:04:16;21.6;;;11.9;;
80868;SDS011;70295;40.182;44.498;2024-01-06T02:06:16;19.7;;;10.8;;
80868;SDS011;70295;40.182;44.498;2024-01-06T02:08:16;18.9;;;11.2;;
80868;SDS011;70295;40.182;44.498;2024-01-06T02:10:17;20;;;10.8;;
80868;SDS011;70295;40.182;44.498;2024-01-06T02:12:16;21.6;;;11.2;;
80868;SDS011;70295;40.182;44.498;2024-01-06T02:14:16;19.6;;;11.4;;
80868;SDS011;70295;40.182;44.498;2024-01-06T02:16:16;17.3;;;9;;
80868;SDS011;70295;40.182;44.498;2024-01-06T02:18:16;18.3;;;10.4;;
80868;SDS011;70295;40.182;44.498;2024-01-06T02:20:16;16.2;;;9.3;;
80868;SDS011;70295;40.182;44.498;2024-01-06T02:22:17;12.8;;;8.1;;
80868;SDS011;70295;40.182;44.498;2024-01-06T02:24:16;10.9;;;6.1;;
80868;SDS011;70295;40.182;44.498;2024-01-06T02:26:16;13.5;;;7.5;;
80868;SDS011;70295;40.182;44.498;2024-01-06T02:28:16;13;;;7.5;;
80868;SDS011;70295;40.182;44.498;2024-01-06T02:30:17;10.9;;;6.4;;
80868;SDS011;70295;40.182;44.498;2024-01-06T02:32:16;11.4;;;6.4;;
80868;SDS011;70295;40.182;44.498;2024-01-06T02:34:16;10.4;;;5.9;;
80868;SDS011;70295;40.182;44.498;2024-01-06T02:36:16;11;;;6.2;;
80868;SDS011;70295;40.182;44.498;2024-01-06T02:38:16;8.5;;;4.9;;
80868;SDS011;70295;40.182;44.498;2024-01-06T02:40:16;9.2;;;4.6;;
80868;SDS011;70295;40.182;44.498;2024-01-06T02:49:14;9.6;;;5.6;;
80868;SDS011;70295;40.182;44.498;2024-01-06T02:51:14;7.5;;;4.5;;
80868;SDS011;70295;40.182;44.498;2024-01-06T02:53:14;6.4;;;3.7;;
80868;SDS011;70295;40.182;44.498;2024-01-06T02:55:14;5.2;;;2.8;;
80868;SDS011;70295;40.182;44.498;2024-01-06T02:57:14;6.4;;;3.5;;
80868;SDS011;70295;40.182;44.498;2024-01-06T02:59:14;5;;;2.5;;
80868;SDS011;70295;40.182;44.498;2024-01-06T03:01:14;4.2;;;2.1;;
80868;SDS011;70295;40.182;44.498;2024-01-06T03:03:14;5.3;;;2.6;;
80868;SDS011;70295;40.182;44.498;2024-01-06T03:05:14;4.4;;;2;;
80868;SDS011;70295;40.182;44.498;2024-01-06T03:07:14;3.5;;;2.1;;
80868;SDS011;70295;40.182;44.498;2024-01-06T03:09:14;4.6;;;2.5;;
80868;SDS011;70295;40.182;44.498;2024-01-06T03:11:14;3.8;;;2.5;;
80868;SDS011;70295;40.182;44.498;2024-01-06T03:13:14;4.3;;;2.4;;
80868;SDS011;70295;40.182;44.498;2024-01-06T03:15:14;3.9;;;1.8;;
80868;SDS011;70295;40.182;44.498;2024-01-06T03:17:14;3.1;;;1.5;;
80868;SDS011;70295;40.182;44.498;2024-01-06T03:19:14;3.4;;;1.8;;
80868;SDS011;70295;40.182;44.498;2024-01-06T03:21:17;3;;;1.6;;
80868;SDS011;70295;40.182;44.498;2024-01-06T03:23:14;3.8;;;1.8;;
80868;SDS011;70295;40.182;44.498;2024-01-06T03:25:14;2.6;;;1.5;;
80868;SDS011;70295;40.182;44.498;2024-01-06T03:27:14;1.6;;;1;;
80868;SDS011;70295;40.182;44.498;2024-01-06T03:29:14;4.5;;;1.8;;
80868;SDS011;70295;40.182;44.498;2024-01-06T03:31:14;4.2;;;1.5;;
80868;SDS011;70295;40.182;44.498;2024-01-06T03:33:14;3;;;1.7;;
80868;SDS011;70295;40.182;44.498;2024-01-06T03:35:14;4;;;1.8;;
80868;SDS011;70295;40.182;44.498;2024-01-06T03:37:14;4.2;;;2.1;;
80868;SDS011;70295;40.182;44.498;2024-01-06T03:39:14;4.1;;;2;;
80868;SDS011;70295;40.182;44.498;2024-01-06T03:41:14;4.8;;;2.6;;
80868;SDS011;70295;40.182;44.498;2024-01-06T03:43:14;4.9;;;2.4;;
80868;SDS011;70295;40.182;44.498;2024-01-06T03:45:14;4.5;;;2.3;;
80868;SDS011;70295;40.182;44.498;2024-01-06T03:47:14;3.9;;;2.5;;
80868;SDS011;70295;40.182;44.498;2024-01-06T03:49:14;5.2;;;2.7;;
80868;SDS011;70295;40.182;44.498;2024-01-06T03:51:14;4.2;;;2.4;;
80868;SDS011;70295;40.182;44.498;2024-01-06T03:53:14;6;;;2.7;;
80868;SDS011;70295;40.182;44.498;2024-01-06T03:55:14;5.2;;;2.7;;
80868;SDS011;70295;40.182;44.498;2024-01-06T03:57:14;4.6;;;3.2;;
80868;SDS011;70295;40.182;44.498;2024-01-06T03:59:14;5;;;2.6;;
80868;SDS011;70295;40.182;44.498;2024-01-06T04:01:14;4.9;;;2.8;;
80868;SDS011;70295;40.182;44.498;2024-01-06T04:03:14;4.4;;;2.6;;
80868;SDS011;70295;40.182;44.498;2024-01-06T04:05:14;5.5;;;3.2;;
80868;SDS011;70295;40.182;44.498;2024-01-06T04:07:14;6.5;;;3.9;;
80868;SDS011;70295;40.182;44.498;2024-01-06T04:09:14;5.1;;;3.3;;
80868;SDS011;70295;40.182;44.498;2024-01-06T04:11:14;5.4;;;2.8;;
80868;SDS011;70295;40.182;44.498;2024-01-06T04:13:15;5.4;;;2.9;;
80868;SDS011;70295;40.182;44.498;2024-01-06T04:15:14;6.8;;;3.2;;
80868;SDS011;70295;40.182;44.498;2024-01-06T04:17:14;6.6;;;3.3;;
80868;SDS011;70295;40.182;44.498;2024-01-06T04:19:13;8.7;;;4;;
80868;SDS011;70295;40.182;44.498;2024-01-06T04:21:13;8.9;;;4.1;;
80868;SDS011;70295;40.182;44.498;2024-01-06T04:23:14;11.4;;;5.9;;
80868;SDS011;70295;40.182;44.498;2024-01-06T04:25:14;9;;;4.1;;
80868;SDS011;70295;40.182;44.498;2024-01-06T04:27:14;9.6;;;5;;
80868;SDS011;70295;40.182;44.498;2024-01-06T04:29:14;8.1;;;4.5;;
80868;SDS011;70295;40.182;44.498;2024-01-06T04:31:13;7.6;;;3.7;;
80868;SDS011;70295;40.182;44.498;2024-01-06T04:33:14;7.8;;;3.5;;
80868;SDS011;70295;40.182;44.498;2024-01-06T04:35:14;6.4;;;3.5;;
80868;SDS011;70295;40.182;44.498;2024-01-06T04:37:14;5.7;;;3.2;;
80868;SDS011;70295;40.182;44.498;2024-01-06T04:39:14;7.4;;;3.5;;
80868;SDS011;70295;40.182;44.498;2024-01-06T04:41:14;7.3;;;3.2;;
80868;SDS011;70295;40.182;44.498;2024-01-06T04:43:14;7.6;;;3.7;;
80868;SDS011;70295;40.182;44.498;2024-01-06T04:45:13;7.6;;;4.1;;
80868;SDS011;70295;40.182;44.498;2024-01-06T04:47:14;6.6;;;3.2;;
80868;SDS011;70295;40.182;44.498;2024-01-06T04:49:13;8.6;;;3.8;;
80868;SDS011;70295;40.182;44.498;2024-01-06T04:51:14;8;;;3.7;;
80868;SDS011;70295;40.182;44.498;2024-01-06T04:53:13;7.4;;;3.5;;
80868;SDS011;70295;40.182;44.498;2024-01-06T04:55:13;5.9;;;2.5;;
80868;SDS011;70295;40.182;44.498;2024-01-06T04:57:13;7.3;;;3.7;;
80868;SDS011;70295;40.182;44.498;2024-01-06T04:59:13;6.3;;;3.3;;
80868;SDS011;70295;40.182;44.498;2024-01-06T05:01:13;8.5;;;3.7;;
80868;SDS011;70295;40.182;44.498;2024-01-06T05:03:13;6.7;;;3.7;;
80868;SDS011;70295;40.182;44.498;2024-01-06T05:05:13;6.8;;;3.6;;
80868;SDS011;70295;40.182;44.498;2024-01-06T05:07:13;7.1;;;3.6;;
80868;SDS011;70295;40.182;44.498;2024-01-06T05:09:13;5.6;;;3;;
80868;SDS011;70295;40.182;44.498;2024-01-06T05:11:13;5.5;;;3.1;;
80868;SDS011;70295;40.182;44.498;2024-01-06T05:13:14;4.4;;;2.3;;
80868;SDS011;70295;40.182;44.498;2024-01-06T05:15:13;4.6;;;2.2;;
80868;SDS011;70295;40.182;44.498;2024-01-06T05:17:13;7.1;;;3.4;;
80868;SDS011;70295;40.182;44.498;2024-01-06T05:19:13;4.9;;;2;;
80868;SDS011;70295;40.182;44.498;2024-01-06T05:21:13;6.3;;;3;;
80868;SDS011;70295;40.182;44.498;2024-01-06T05:23:13;3.7;;;2.3;;
80868;SDS011;70295;40.182;44.498;2024-01-06T05:25:14;5.2;;;2.8;;
80868;SDS011;70295;40.182;44.498;2024-01-06T05:27:13;6.2;;;3.2;;
80868;SDS011;70295;40.182;44.498;2024-01-06T05:29:13;6.2;;;2.6;;
80868;SDS011;70295;40.182;44.498;2024-01-06T05:31:13;5.3;;;2.4;;
80868;SDS011;70295;40.182;44.498;2024-01-06T05:33:15;3.9;;;2.1;;
80868;SDS011;70295;40.182;44.498;2024-01-06T05:35:15;4.9;;;2.6;;
80868;SDS011;70295;40.182;44.498;2024-01-06T05:37:14;5.8;;;2.7;;
80868;SDS011;70295;40.182;44.498;2024-01-06T05:39:13;6.2;;;2.6;;
80868;SDS011;70295;40.182;44.498;2024-01-06T05:41:13;4.3;;;2;;
80868;SDS011;70295;40.182;44.498;2024-01-06T05:43:13;4.6;;;2.4;;
80868;SDS011;70295;40.182;44.498;2024-01-06T05:45:13;6.4;;;2.7;;
80868;SDS011;70295;40.182;44.498;2024-01-06T05:47:13;5.3;;;2.9;;
80868;SDS011;70295;40.182;44.498;2024-01-06T05:49:13;6.2;;;2.9;;
80868;SDS011;70295;40.182;44.498;2024-01-06T05:51:13;5.9;;;3.2;;
80868;SDS011;70295;40.182;44.498;2024-01-06T05:53:13;5.6;;;3.3;;
80868;SDS011;70295;40.182;44.498;2024-01-06T05:55:13;7.2;;;3.4;;
80868;SDS011;70295;40.182;44.498;2024-01-06T05:57:13;5.4;;;3.6;;
80868;SDS011;70295;40.182;44.498;2024-01-06T05:59:13;7.6;;;3.7;;
80868;SDS011;70295;40.182;44.498;2024-01-06T06:01:13;4.7;;;2.3;;
80868;SDS011;70295;40.182;44.498;2024-01-06T06:03:13;6;;;2.6;;
80868;SDS011;70295;40.182;44.498;2024-01-06T06:05:14;6;;;3.1;;
80868;SDS011;70295;40.182;44.498;2024-01-06T06:07:13;10.3;;;3.6;;
80868;SDS011;70295;40.182;44.498;2024-01-06T06:09:13;4;;;2.3;;
80868;SDS011;70295;40.182;44.498;2024-01-06T06:11:13;5.7;;;2.7;;
80868;SDS011;70295;40.182;44.498;2024-01-06T06:13:13;5.5;;;2.6;;
80868;SDS011;70295;40.182;44.498;2024-01-06T06:15:13;4.3;;;2.8;;
80868;SDS011;70295;40.182;44.498;2024-01-06T06:17:13;4.7;;;2.7;;
80868;SDS011;70295;40.182;44.498;2024-01-06T06:19:13;5.4;;;2.4;;
80868;SDS011;70295;40.182;44.498;2024-01-06T06:21:13;4.8;;;2.9;;
80868;SDS011;70295;40.182;44.498;2024-01-06T06:23:13;3.7;;;2;;
80868;SDS011;70295;40.182;44.498;2024-01-06T06:25:13;3.1;;;2;;
80868;SDS011;70295;40.182;44.498;2024-01-06T06:27:13;3.6;;;1.7;;
80868;SDS011;70295;40.182;44.498;2024-01-06T06:29:13;2.9;;;1.9;;
80868;SDS011;70295;40.182;44.498;2024-01-06T06:31:13;3.2;;;1.8;;
80868;SDS011;70295;40.182;44.498;2024-01-06T06:33:13;4.7;;;2;;
80868;SDS011;70295;40.182;44.498;2024-01-06T06:35:13;4;;;2.2;;
80868;SDS011;70295;40.182;44.498;2024-01-06T06:37:13;2.9;;;2;;
80868;SDS011;70295;40.182;44.498;2024-01-06T06:39:13;2.9;;;1.5;;
80868;SDS011;70295;40.182;44.498;2024-01-06T06:41:13;4.8;;;2;;
80868;SDS011;70295;40.182;44.498;2024-01-06T06:43:14;4.2;;;1.7;;
80868;SDS011;70295;40.182;44.498;2024-01-06T06:45:13;4;;;1.9;;
80868;SDS011;70295;40.182;44.498;2024-01-06T06:47:13;3.9;;;2.4;;
80868;SDS011;70295;40.182;44.498;2024-01-06T06:49:13;3.2;;;2.2;;
80868;SDS011;70295;40.182;44.498;2024-01-06T06:51:13;5.5;;;2.4;;
80868;SDS011;70295;40.182;44.498;2024-01-06T06:53:13;3.1;;;1.7;;
80868;SDS011;70295;40.182;44.498;2024-01-06T06:55:13;3.7;;;1.9;;
80868;SDS011;70295;40.182;44.498;2024-01-06T06:57:13;2.9;;;1.8;;
80868;SDS011;70295;40.182;44.498;2024-01-06T06:59:13;5;;;2.2;;
80868;SDS011;70295;40.182;44.498;2024-01-06T07:01:16;4.5;;;2.2;;
80868;SDS011;70295;40.182;44.498;2024-01-06T07:03:13;4.4;;;2.2;;
80868;SDS011;70295;40.182;44.498;2024-01-06T07:05:13;4.1;;;2.2;;
80868;SDS011;70295;40.182;44.498;2024-01-06T07:07:13;4.8;;;1.9;;
80868;SDS011;70295;40.182;44.498;2024-01-06T07:09:13;2.5;;;1.4;;
80868;SDS011;70295;40.182;44.498;2024-01-06T07:11:13;2.8;;;1.8;;
80868;SDS011;70295;40.182;44.498;2024-01-06T07:13:13;4.4;;;1.9;;
80868;SDS011;70295;40.182;44.498;2024-01-06T07:15:13;3.4;;;1.9;;
80868;SDS011;70295;40.182;44.498;2024-01-06T07:17:13;4.8;;;2.3;;
80868;SDS011;70295;40.182;44.498;2024-01-06T07:19:15;3.8;;;2.1;;
80868;SDS011;70295;40.182;44.498;2024-01-06T07:21:13;4.4;;;2;;
80868;SDS011;70295;40.182;44.498;2024-01-06T07:23:13;3.1;;;2;;
80868;SDS011;70295;40.182;44.498;2024-01-06T07:25:14;3;;;2;;
80868;SDS011;70295;40.182;44.498;2024-01-06T07:27:13;3.8;;;2.2;;
80868;SDS011;70295;40.182;44.498;2024-01-06T07:29:13;3.3;;;2.3;;
80868;SDS011;70295;40.182;44.498;2024-01-06T07:31:14;4.1;;;2.1;;
80868;SDS011;70295;40.182;44.498;2024-01-06T07:33:13;5;;;2.2;;
80868;SDS011;70295;40.182;44.498;2024-01-06T07:35:13;3.9;;;2;;
80868;SDS011;70295;40.182;44.498;2024-01-06T07:37:13;5.1;;;2.3;;
80868;SDS011;70295;40.182;44.498;2024-01-06T07:39:13;5.5;;;2.5;;
80868;SDS011;70295;40.182;44.498;2024-01-06T07:41:13;4.8;;;2.4;;
80868;SDS011;70295;40.182;44.498;2024-01-06T07:43:13;3.6;;;2.4;;
80868;SDS011;70295;40.182;44.498;2024-01-06T07:45:13;5.6;;;2.8;;
80868;SDS011;70295;40.182;44.498;2024-01-06T07:47:13;5;;;2.7;;
80868;SDS011;70295;40.182;44.498;2024-01-06T07:49:13;4;;;2.4;;
80868;SDS011;70295;40.182;44.498;2024-01-06T07:51:13;5;;;2.6;;
80868;SDS011;70295;40.182;44.498;2024-01-06T07:53:13;4.4;;;2.5;;
80868;SDS011;70295;40.182;44.498;2024-01-06T07:55:13;4.1;;;2.3;;
80868;SDS011;70295;40.182;44.498;2024-01-06T07:57:13;6.4;;;2.5;;
80868;SDS011;70295;40.182;44.498;2024-01-06T07:59:13;4.3;;;2.7;;
80868;SDS011;70295;40.182;44.498;2024-01-06T08:01:13;4.8;;;2.6;;
80868;SDS011;70295;40.182;44.498;2024-01-06T08:03:13;5;;;2.8;;
80868;SDS011;70295;40.182;44.498;2024-01-06T08:05:13;5.1;;;3;;
80868;SDS011;70295;40.182;44.498;2024-01-06T08:07:13;5.7;;;3.1;;
80868;SDS011;70295;40.182;44.498;2024-01-06T08:09:13;4.9;;;3;;
80868;SDS011;70295;40.182;44.498;2024-01-06T08:11:13;5.9;;;3.3;;
80868;SDS011;70295;40.182;44.498;2024-01-06T08:13:13;5.3;;;3.2;;
80868;SDS011;70295;40.182;44.498;2024-01-06T08:15:13;4.9;;;3.1;;
80868;SDS011;70295;40.182;44.498;2024-01-06T08:17:13;5.6;;;3.2;;
80868;SDS011;70295;40.182;44.498;2024-01-06T08:19:13;5;;;3.1;;
80868;SDS011;70295;40.182;44.498;2024-01-06T08:21:13;4.7;;;2.8;;
80868;SDS011;70295;40.182;44.498;2024-01-06T08:23:13;4.3;;;3;;
80868;SDS011;70295;40.182;44.498;2024-01-06T08:25:13;4.8;;;3;;
80868;SDS011;70295;40.182;44.498;2024-01-06T08:27:13;4.6;;;3;;
80868;SDS011;70295;40.182;44.498;2024-01-06T08:29:13;4.6;;;2.7;;
80868;SDS011;70295;40.182;44.498;2024-01-06T08:31:13;5.6;;;2.5;;
80868;SDS011;70295;40.182;44.498;2024-01-06T08:33:13;4.9;;;2.7;;
80868;SDS011;70295;40.182;44.498;2024-01-06T08:35:13;4.6;;;2.8;;
80868;SDS011;70295;40.182;44.498;2024-01-06T08:37:13;5.1;;;2.2;;
80868;SDS011;70295;40.182;44.498;2024-01-06T08:39:13;4;;;2.4;;
80868;SDS011;70295;40.182;44.498;2024-01-06T08:41:13;3.8;;;1.9;;
80868;SDS011;70295;40.182;44.498;2024-01-06T08:43:13;3.7;;;2.2;;
80868;SDS011;70295;40.182;44.498;2024-01-06T08:45:13;3;;;1.7;;
80868;SDS011;70295;40.182;44.498;2024-01-06T08:47:13;3.7;;;1.9;;
80868;SDS011;70295;40.182;44.498;2024-01-06T08:49:13;3.8;;;1.9;;
80868;SDS011;70295;40.182;44.498;2024-01-06T08:51:13;2.7;;;1.8;;
80868;SDS011;70295;40.182;44.498;2024-01-06T08:53:14;5.3;;;2.8;;
80868;SDS011;70295;40.182;44.498;2024-01-06T08:55:13;4;;;2.2;;
80868;SDS011;70295;40.182;44.498;2024-01-06T08:57:13;3.9;;;2.1;;
80868;SDS011;70295;40.182;44.498;2024-01-06T08:59:13;4.5;;;2;;
80868;SDS011;70295;40.182;44.498;2024-01-06T09:01:13;4.4;;;1.6;;
80868;SDS011;70295;40.182;44.498;2024-01-06T09:09:55;4.3;;;1.9;;
80868;SDS011;70295;40.182;44.498;2024-01-06T09:11:55;3.8;;;1.8;;
80868;SDS011;70295;40.182;44.498;2024-01-06T09:13:55;3.4;;;1.9;;
80868;SDS011;70295;40.182;44.498;2024-01-06T09:15:55;2.9;;;1.3;;
80868;SDS011;70295;40.182;44.498;2024-01-06T09:17:55;2.7;;;1.3;;
80868;SDS011;70295;40.182;44.498;2024-01-06T09:19:55;3.6;;;1.5;;
80868;SDS011;70295;40.182;44.498;2024-01-06T09:21:55;1.8;;;1.3;;
80868;SDS011;70295;40.182;44.498;2024-01-06T09:23:55;2.9;;;1.6;;
80868;SDS011;70295;40.182;44.498;2024-01-06T09:25:55;4;;;2;;
80868;SDS011;70295;40.182;44.498;2024-01-06T09:27:55;2.9;;;1.4;;
80868;SDS011;70295;40.182;44.498;2024-01-06T09:29:55;2.9;;;1.5;;
80868;SDS011;70295;40.182;44.498;2024-01-06T09:31:55;3.1;;;1.4;;
80868;SDS011;70295;40.182;44.498;2024-01-06T09:33:55;2.5;;;1.5;;
80868;SDS011;70295;40.182;44.498;2024-01-06T09:35:55;3.5;;;1.7;;
80868;SDS011;70295;40.182;44.498;2024-01-06T09:37:55;2.6;;;1.2;;
80868;SDS011;70295;40.182;44.498;2024-01-06T09:39:55;2.2;;;1.4;;
80868;SDS011;70295;40.182;44.498;2024-01-06T09:41:55;3;;;1.8;;
80868;SDS011;70295;40.182;44.498;2024-01-06T09:43:55;2.5;;;1.3;;
80868;SDS011;70295;40.182;44.498;2024-01-06T09:47:55;2.8;;;1.3;;
80868;SDS011;70295;40.182;44.498;2024-01-06T09:49:55;2.1;;;1.1;;
80868;SDS011;70295;40.182;44.498;2024-01-06T09:51:58;4.4;;;1.4;;
80868;SDS011;70295;40.182;44.498;2024-01-06T09:53:59;1.8;;;1;;
80868;SDS011;70295;40.182;44.498;2024-01-06T09:55:56;3.4;;;1.2;;
80868;SDS011;70295;40.182;44.498;2024-01-06T09:57:55;2.1;;;1;;
80868;SDS011;70295;40.182;44.498;2024-01-06T09:59:55;1.9;;;1;;
80868;SDS011;70295;40.182;44.498;2024-01-06T10:01:55;1.6;;;0.7;;
80868;SDS011;70295;40.182;44.498;2024-01-06T10:03:55;2.7;;;0.9;;
80868;SDS011;70295;40.182;44.498;2024-01-06T10:05:55;1.5;;;0.7;;
80868;SDS011;70295;40.182;44.498;2024-01-06T10:07:55;2.7;;;1.1;;
80868;SDS011;70295;40.182;44.498;2024-01-06T10:09:55;2.2;;;0.9;;
80868;SDS011;70295;40.182;44.498;2024-01-06T10:11:56;2.8;;;0.9;;
80868;SDS011;70295;40.182;44.498;2024-01-06T10:13:55;1.6;;;0.9;;
80868;SDS011;70295;40.182;44.498;2024-01-06T10:15:55;1.4;;;0.7;;
80868;SDS011;70295;40.182;44.498;2024-01-06T10:17:55;2;;;0.8;;
80868;SDS011;70295;40.182;44.498;2024-01-06T10:19:55;1.6;;;0.8;;
80868;SDS011;70295;40.182;44.498;2024-01-06T10:21:55;0.9;;;0.4;;
80868;SDS011;70295;40.182;44.498;2024-01-06T10:23:55;1.2;;;0.6;;
80868;SDS011;70295;40.182;44.498;2024-01-06T10:25:55;0.9;;;0.4;;
80868;SDS011;70295;40.182;44.498;2024-01-06T10:27:55;1.1;;;0.5;;
80868;SDS011;70295;40.182;44.498;2024-01-06T10:29:55;1.1;;;0.5;;
80868;SDS011;70295;40.182;44.498;2024-01-06T10:31:55;0.9;;;0.5;;
80868;SDS011;70295;40.182;44.498;2024-01-06T10:33:55;0.8;;;0.4;;
80868;SDS011;70295;40.182;44.498;2024-01-06T10:35:55;1.5;;;0.6;;
80868;SDS011;70295;40.182;44.498;2024-01-06T10:37:55;2.1;;;0.9;;
80868;SDS011;70295;40.182;44.498;2024-01-06T10:41:55;1.4;;;0.6;;
80868;SDS011;70295;40.182;44.498;2024-01-06T10:43:55;1.5;;;0.8;;
80868;SDS011;70295;40.182;44.498;2024-01-06T10:45:56;2.2;;;1.3;;
80868;SDS011;70295;40.182;44.498;2024-01-06T10:47:55;1.3;;;0.8;;
80868;SDS011;70295;40.182;44.498;2024-01-06T10:49:55;2.4;;;1;;
80868;SDS011;70295;40.182;44.498;2024-01-06T10:51:55;2;;;1;;
80868;SDS011;70295;40.182;44.498;2024-01-06T10:53:57;2.6;;;1.1;;
80868;SDS011;70295;40.182;44.498;2024-01-06T10:55:55;1.9;;;1.1;;
80868;SDS011;70295;40.182;44.498;2024-01-06T10:57:55;2.4;;;1.2;;
80868;SDS011;70295;40.182;44.498;2024-01-06T10:59:58;2.2;;;1.1;;
80868;SDS011;70295;40.182;44.498;2024-01-06T11:01:55;2.6;;;1.2;;
80868;SDS011;70295;40.182;44.498;2024-01-06T11:03:55;4;;;1.6;;
80868;SDS011;70295;40.182;44.498;2024-01-06T11:05:56;3.1;;;1.3;;
80868;SDS011;70295;40.182;44.498;2024-01-06T11:07:55;2.3;;;1.3;;
80868;SDS011;70295;40.182;44.498;2024-01-06T11:11:55;2.4;;;1.4;;
80868;SDS011;70295;40.182;44.498;2024-01-06T11:15:55;2.9;;;1.9;;
80868;SDS011;70295;40.182;44.498;2024-01-06T11:17:55;3.1;;;1.6;;
80868;SDS011;70295;40.182;44.498;2024-01-06T11:20:08;2.1;;;1.1;;
80868;SDS011;70295;40.182;44.498;2024-01-06T11:21:55;3.1;;;1.5;;
80868;SDS011;70295;40.182;44.498;2024-01-06T11:25:55;3.2;;;1.3;;
80868;SDS011;70295;40.182;44.498;2024-01-06T11:27:55;2.4;;;1.4;;
80868;SDS011;70295;40.182;44.498;2024-01-06T11:29:56;3.1;;;1.5;;
80868;SDS011;70295;40.182;44.498;2024-01-06T11:33:55;3.3;;;2;;
80868;SDS011;70295;40.182;44.498;2024-01-06T11:35:55;3.8;;;2.2;;
80868;SDS011;70295;40.182;44.498;2024-01-06T11:38:06;3.4;;;2.2;;
80868;SDS011;70295;40.182;44.498;2024-01-06T11:39:55;4.1;;;2.3;;
80868;SDS011;70295;40.182;44.498;2024-01-06T11:41:55;3.4;;;2.3;;
80868;SDS011;70295;40.182;44.498;2024-01-06T11:43:55;3.5;;;1.9;;
80868;SDS011;70295;40.182;44.498;2024-01-06T11:45:56;3.6;;;2.2;;
80868;SDS011;70295;40.182;44.498;2024-01-06T11:47:56;2.9;;;1.9;;
80868;SDS011;70295;40.182;44.498;2024-01-06T11:49:55;3.4;;;1.7;;
80868;SDS011;70295;40.182;44.498;2024-01-06T11:51:56;2.7;;;1.5;;
80868;SDS011;70295;40.182;44.498;2024-01-06T11:53:55;3.2;;;1.6;;
80868;SDS011;70295;40.182;44.498;2024-01-06T11:55:55;2.4;;;1.6;;
80868;SDS011;70295;40.182;44.498;2024-01-06T11:57:55;2.9;;;1.5;;
80868;SDS011;70295;40.182;44.498;2024-01-06T11:59:55;2.8;;;1.2;;
80868;SDS011;70295;40.182;44.498;2024-01-06T12:01:55;3.6;;;1.2;;
80868;SDS011;70295;40.182;44.498;2024-01-06T12:03:55;2.8;;;1.4;;
80868;SDS011;70295;40.182;44.498;2024-01-06T12:06:02;2.9;;;1.5;;
80868;SDS011;70295;40.182;44.498;2024-01-06T12:07:59;2.3;;;1.2;;
80868;SDS011;70295;40.182;44.498;2024-01-06T12:10:02;2;;;1.1;;
80868;SDS011;70295;40.182;44.498;2024-01-06T12:12:05;2.3;;;1.2;;
80868;SDS011;70295;40.182;44.498;2024-01-06T12:13:54;2;;;1.3;;
80868;SDS011;70295;40.182;44.498;2024-01-06T12:15:55;3.1;;;1.6;;
80868;SDS011;70295;40.182;44.498;2024-01-06T12:17:55;2.5;;;1.3;;
80868;SDS011;70295;40.182;44.498;2024-01-06T12:19:55;3.2;;;1.4;;
80868;SDS011;70295;40.182;44.498;2024-01-06T12:21:55;2.3;;;1.3;;
80868;SDS011;70295;40.182;44.498;2024-01-06T12:25:55;2.1;;;1.1;;
80868;SDS011;70295;40.182;44.498;2024-01-06T12:27:54;2.5;;;1.6;;
80868;SDS011;70295;40.182;44.498;2024-01-06T12:29:54;2.3;;;1.4;;
80868;SDS011;70295;40.182;44.498;2024-01-06T12:31:55;2.2;;;1.3;;
80868;SDS011;70295;40.182;44.498;2024-01-06T12:33:55;1.9;;;1.3;;
80868;SDS011;70295;40.182;44.498;2024-01-06T12:35:54;2.3;;;1.4;;
80868;SDS011;70295;40.182;44.498;2024-01-06T12:37:55;3.2;;;1.9;;
80868;SDS011;70295;40.182;44.498;2024-01-06T12:39:57;2.2;;;1.4;;
80868;SDS011;70295;40.182;44.498;2024-01-06T12:41:55;2.2;;;1.4;;